createdAt,value
2023-01-25T00:01:54.593Z,101007.53
2023-01-25T00:04:22.329Z,101003.63
2023-01-25T00:06:49.913Z,100991.50
2023-01-25T00:09:17.964Z,100988.03
2023-01-25T00:11:44.679Z,100989.97
2023-01-25T00:14:12.458Z,101003.44
2023-01-25T00:16:40.631Z,101010.09
2023-01-25T00:19:08.583Z,101009.41
2023-01-25T00:21:36.076Z,101015.06
2023-01-25T00:24:04.026Z,101025.81
2023-01-25T00:26:31.983Z,101018.03
2023-01-25T00:28:58.556Z,101012.56
2023-01-25T00:31:35.026Z,101011.34
2023-01-25T00:34:24.358Z,101015.44
2023-01-25T00:36:58.942Z,100994.28
2023-01-25T00:39:26.911Z,100990.53
2023-01-25T00:41:53.700Z,100991.56
2023-01-25T00:44:20.328Z,100991.19
2023-01-25T00:46:47.396Z,100999.72
2023-01-25T00:49:21.399Z,100998.44
2023-01-25T00:51:48.701Z,100994.75
2023-01-25T00:54:15.224Z,100987.47
2023-01-25T00:56:41.738Z,101013.97
2023-01-25T00:59:09.461Z,101018.22
2023-01-25T01:01:36.333Z,101020.63
2023-01-25T01:04:04.993Z,101015.38
2023-01-25T01:06:32.351Z,101005.22
2023-01-25T01:08:58.907Z,100998.63
2023-01-25T01:11:25.468Z,101003.00
2023-01-25T01:13:52.032Z,101001.19
2023-01-25T01:16:19.083Z,101007.44
2023-01-25T01:18:46.333Z,100996.47
2023-01-25T01:21:14.108Z,100994.97
2023-01-25T01:23:41.303Z,100990.59
2023-01-25T01:26:11.004Z,100985.91
2023-01-25T01:28:37.548Z,100975.78
2023-01-25T01:31:06.826Z,100973.22
2023-01-25T01:33:35.224Z,100976.53
2023-01-25T01:36:13.657Z,100982.50
2023-01-25T01:38:40.767Z,100978.13
2023-01-25T01:41:08.130Z,100974.38
2023-01-25T01:43:35.023Z,100974.44
2023-01-25T01:46:09.464Z,100975.06
2023-01-25T01:48:38.600Z,100962.81
2023-01-25T01:51:33.141Z,100943.69
2023-01-25T01:54:08.843Z,100942.28
2023-01-25T01:56:46.424Z,100946.19
2023-01-25T01:59:13.252Z,100952.22
2023-01-25T02:01:40.178Z,100959.66
2023-01-25T02:04:08.468Z,100947.41
2023-01-25T02:06:46.050Z,100942.13
2023-01-25T02:09:14.590Z,100941.06
2023-01-25T02:11:41.878Z,100938.94
2023-01-25T02:14:09.027Z,100946.63
2023-01-25T02:16:35.589Z,100949.97
2023-01-25T02:19:02.268Z,100937.88
2023-01-25T02:21:36.547Z,100933.13
2023-01-25T02:24:10.642Z,100936.06
2023-01-25T02:26:37.489Z,100929.25
2023-01-25T02:29:06.967Z,100931.06
2023-01-25T02:31:33.819Z,100921.47
2023-01-25T02:34:00.867Z,100919.66
2023-01-25T02:36:30.659Z,100906.44
2023-01-25T02:39:02.090Z,100909.25
2023-01-25T02:41:35.717Z,100912.19
2023-01-25T02:44:23.466Z,100915.94
2023-01-25T02:46:50.095Z,100912.63
2023-01-25T02:49:17.139Z,100907.16
2023-01-25T02:51:47.580Z,100894.25
2023-01-25T02:54:15.873Z,100889.63
2023-01-25T02:56:42.669Z,100891.59
2023-01-25T02:59:10.487Z,100906.25
2023-01-25T03:01:39.080Z,100896.38
2023-01-25T03:04:06.602Z,100891.91
2023-01-25T03:06:34.626Z,100887.97
2023-01-25T03:09:02.358Z,100878.22
2023-01-25T03:11:28.939Z,100867.84
2023-01-25T03:13:55.569Z,100870.56
2023-01-25T03:16:22.229Z,100870.13
2023-01-25T03:18:48.806Z,100874.97
2023-01-25T03:21:19.760Z,100875.94
2023-01-25T03:23:47.735Z,100868.91
2023-01-25T03:26:19.713Z,100867.78
2023-01-25T03:28:46.391Z,100875.94
2023-01-25T03:31:15.241Z,100882.81
2023-01-25T03:33:41.887Z,100882.97
2023-01-25T03:36:09.372Z,100871.78
2023-01-25T03:38:36.201Z,100882.81
2023-01-25T03:41:03.635Z,100867.72
2023-01-25T03:43:30.584Z,100862.56
2023-01-25T03:46:00.119Z,100860.59
2023-01-25T03:48:27.972Z,100873.53
2023-01-25T03:50:59.314Z,100862.09
2023-01-25T03:53:28.906Z,100867.59
2023-01-25T03:55:57.910Z,100875.41
2023-01-25T03:58:24.782Z,100871.28
2023-01-25T04:00:54.806Z,100878.72
2023-01-25T04:03:21.478Z,100872.44
2023-01-25T04:05:48.529Z,100881.91
2023-01-25T04:08:15.417Z,100889.28
2023-01-25T04:10:41.942Z,100894.28
2023-01-25T04:13:09.160Z,100899.25
2023-01-25T04:15:36.234Z,100900.34
2023-01-25T04:18:02.848Z,100898.50
2023-01-25T04:20:29.609Z,100904.31
2023-01-25T04:22:56.179Z,100901.53
2023-01-25T04:25:22.716Z,100896.28
2023-01-25T04:27:50.163Z,100894.22
2023-01-25T04:30:17.126Z,100906.16
2023-01-25T04:32:43.889Z,100896.94
2023-01-25T04:35:11.043Z,100903.00
2023-01-25T04:37:37.975Z,100908.31
2023-01-25T04:40:05.444Z,100912.44
2023-01-25T04:42:32.048Z,100916.28
2023-01-25T04:44:58.632Z,100909.06
2023-01-25T04:47:25.190Z,100908.50
2023-01-25T04:49:51.783Z,100902.19
2023-01-25T04:52:18.443Z,100904.19
2023-01-25T04:54:45.004Z,100910.06
2023-01-25T04:57:11.466Z,100908.16
2023-01-25T04:59:38.083Z,100906.84
2023-01-25T05:02:04.704Z,100899.72
2023-01-25T05:04:31.294Z,100898.06
2023-01-25T05:06:57.886Z,100898.38
2023-01-25T05:09:24.343Z,100909.59
2023-01-25T05:11:50.863Z,100914.50
2023-01-25T05:14:17.371Z,100923.13
2023-01-25T05:16:44.291Z,100918.81
2023-01-25T05:19:11.100Z,100922.13
2023-01-25T05:21:37.763Z,100915.66
2023-01-25T05:24:04.615Z,100911.81
2023-01-25T05:26:31.163Z,100925.94
2023-01-25T05:28:57.769Z,100926.41
2023-01-25T05:31:24.447Z,100908.25
2023-01-25T05:33:51.065Z,100905.34
2023-01-25T05:36:17.649Z,100893.41
2023-01-25T05:38:44.115Z,100879.78
2023-01-25T05:41:10.619Z,100886.31
2023-01-25T05:43:37.300Z,100890.88
2023-01-25T05:46:03.896Z,100876.63
2023-01-25T05:48:30.489Z,100873.63
2023-01-25T05:50:59.990Z,100871.66
2023-01-25T05:53:27.492Z,100869.97
2023-01-25T05:55:54.376Z,100875.72
2023-01-25T05:58:21.067Z,100892.72
2023-01-25T06:00:47.618Z,100899.22
2023-01-25T06:03:14.161Z,100897.75
2023-01-25T06:05:40.885Z,100896.50
2023-01-25T06:08:07.411Z,100895.41
2023-01-25T06:10:33.895Z,100893.44
2023-01-25T06:13:00.437Z,100882.81
2023-01-25T06:15:27.998Z,100888.34
2023-01-25T06:17:55.756Z,100896.63
2023-01-25T06:20:22.457Z,100876.38
2023-01-25T06:22:50.538Z,100882.28
2023-01-25T06:25:17.336Z,100882.75
2023-01-25T06:27:44.356Z,100882.50
2023-01-25T06:30:11.323Z,100892.72
2023-01-25T06:32:37.854Z,100887.97
2023-01-25T06:35:05.122Z,100887.72
2023-01-25T06:37:31.894Z,100884.72
2023-01-25T06:39:58.386Z,100887.28
2023-01-25T06:42:25.302Z,100881.66
2023-01-25T06:44:51.851Z,100882.41
2023-01-25T06:47:18.352Z,100889.22
2023-01-25T06:49:44.947Z,100893.09
2023-01-25T06:52:11.523Z,100892.59
2023-01-25T06:54:38.052Z,100893.13
2023-01-25T06:57:04.942Z,100888.47
2023-01-25T06:59:31.456Z,100883.22
2023-01-25T07:01:58.059Z,100887.28
2023-01-25T07:04:24.859Z,100892.44
2023-01-25T07:06:51.356Z,100889.28
2023-01-25T07:09:17.933Z,100890.59
2023-01-25T07:11:44.488Z,100881.41
2023-01-25T07:14:10.963Z,100875.69
2023-01-25T07:16:37.605Z,100870.53
2023-01-25T07:19:05.921Z,100870.94
2023-01-25T07:21:33.448Z,100873.59
2023-01-25T07:24:01.871Z,100878.09
2023-01-25T07:26:28.579Z,100875.97
2023-01-25T07:28:56.705Z,100866.13
2023-01-25T07:31:23.868Z,100869.53
2023-01-25T07:33:55.663Z,100866.78
2023-01-25T07:36:22.283Z,100873.25
2023-01-25T07:38:52.446Z,100870.75
2023-01-25T07:41:19.024Z,100865.50
2023-01-25T07:43:45.630Z,100858.41
2023-01-25T07:46:13.427Z,100865.69
2023-01-25T07:48:45.435Z,100864.50
2023-01-25T07:51:12.096Z,100868.81
2023-01-25T07:53:43.115Z,100866.97
2023-01-25T07:56:11.553Z,100867.81
2023-01-25T07:58:38.926Z,100870.84
2023-01-25T08:01:10.684Z,100873.25
2023-01-25T08:07:34.701Z,100872.59
2023-01-25T08:10:01.202Z,100869.63
2023-01-25T08:12:27.734Z,100877.00
2023-01-25T08:14:54.202Z,100876.50
2023-01-25T08:17:20.726Z,100878.94
2023-01-25T08:19:47.343Z,100867.88
2023-01-25T08:22:13.933Z,100877.00
2023-01-25T08:24:40.516Z,100880.88
2023-01-25T08:27:07.296Z,100875.66
2023-01-25T08:29:33.785Z,100875.47
2023-01-25T08:32:00.348Z,100880.84
2023-01-25T08:34:27.001Z,100879.06
2023-01-25T08:36:53.533Z,100880.34
2023-01-25T08:39:20.008Z,100885.31
2023-01-25T08:41:46.623Z,100874.41
2023-01-25T08:44:13.192Z,100871.38
2023-01-25T08:46:39.756Z,100875.06
2023-01-25T08:49:06.526Z,100881.22
2023-01-25T08:51:33.762Z,100873.56
2023-01-25T08:54:06.084Z,100867.09
2023-01-25T08:56:33.529Z,100855.81
2023-01-25T08:59:00.101Z,100855.00
2023-01-25T09:01:26.607Z,100858.84
2023-01-25T09:03:54.172Z,100854.59
2023-01-25T09:06:21.237Z,100844.03
2023-01-25T09:08:48.227Z,100850.16
2023-01-25T09:11:18.051Z,100850.56
2023-01-25T09:13:45.099Z,100842.91
2023-01-25T09:16:15.323Z,100846.03
2023-01-25T09:18:44.334Z,100835.94
2023-01-25T09:21:13.909Z,100840.72
2023-01-25T09:23:50.662Z,100838.88
2023-01-25T09:26:25.046Z,100830.38
2023-01-25T09:28:53.608Z,100829.31
2023-01-25T09:31:23.647Z,100824.97
2023-01-25T09:33:51.895Z,100833.41
2023-01-25T09:36:19.036Z,100823.50
2023-01-25T09:38:45.517Z,100824.25
2023-01-25T09:41:36.803Z,100818.78
2023-01-25T09:44:21.114Z,100821.47
2023-01-25T09:46:58.660Z,100811.56
2023-01-25T09:50:02.348Z,100807.97
2023-01-25T09:52:50.172Z,100804.16
2023-01-25T09:55:20.502Z,100803.31
2023-01-25T09:57:47.678Z,100802.31
2023-01-25T10:00:31.529Z,100802.81
2023-01-25T10:03:21.024Z,100793.41
2023-01-25T10:05:51.593Z,100786.78
2023-01-25T10:08:36.512Z,100787.38
2023-01-25T10:11:05.833Z,100782.97
2023-01-25T10:13:32.359Z,100779.78
2023-01-25T10:16:06.472Z,100775.13
2023-01-25T10:18:40.366Z,100775.72
2023-01-25T10:21:09.751Z,100773.78
2023-01-25T10:24:06.683Z,100767.88
2023-01-25T10:26:35.821Z,100766.84
2023-01-25T10:29:18.658Z,100758.16
2023-01-25T10:31:50.796Z,100744.13
2023-01-25T10:34:21.689Z,100748.75
2023-01-25T10:37:02.688Z,100752.06
2023-01-25T10:39:31.491Z,100740.91
2023-01-25T10:42:06.719Z,100734.06
2023-01-25T10:44:34.945Z,100735.84
2023-01-25T10:47:07.299Z,100733.06
2023-01-25T10:49:50.807Z,100732.13
2023-01-25T10:52:26.028Z,100728.81
2023-01-25T10:55:29.105Z,100730.16
2023-01-25T10:57:57.667Z,100719.81
2023-01-25T11:00:40.385Z,100713.84
2023-01-25T11:03:19.705Z,100717.03
2023-01-25T11:05:55.449Z,100718.16
2023-01-25T11:08:30.912Z,100716.00
2023-01-25T11:10:59.447Z,100716.09
2023-01-25T11:13:33.292Z,100707.75
2023-01-25T11:16:17.010Z,100707.22
2023-01-25T11:18:55.015Z,100706.59
2023-01-25T11:21:24.640Z,100711.22
2023-01-25T11:24:17.758Z,100707.72
2023-01-25T11:26:46.402Z,100700.06
2023-01-25T11:29:16.323Z,100706.78
2023-01-25T11:31:46.172Z,100702.44
2023-01-25T11:34:16.136Z,100704.63
2023-01-25T11:36:57.768Z,100701.44
2023-01-25T11:39:38.391Z,100697.59
2023-01-25T11:42:32.540Z,100697.59
2023-01-25T11:44:59.613Z,100695.94
2023-01-25T11:47:41.013Z,100690.28
2023-01-25T11:50:24.492Z,100687.28
2023-01-25T11:53:12.793Z,100685.63
2023-01-25T11:55:48.685Z,100686.66
2023-01-25T11:58:37.092Z,100684.50
2023-01-25T12:01:14.591Z,100678.88
2023-01-25T12:04:20.810Z,100680.44
2023-01-25T12:07:07.138Z,100680.34
2023-01-25T12:09:57.723Z,100685.09
2023-01-25T12:12:56.769Z,100688.72
2023-01-25T12:15:52.548Z,100686.97
2023-01-25T12:18:31.883Z,100687.47
2023-01-25T12:21:30.850Z,100681.69
2023-01-25T12:24:08.329Z,100679.31
2023-01-25T12:27:19.451Z,100680.97
2023-01-25T12:29:58.827Z,100682.63
2023-01-25T12:32:35.873Z,100678.78
2023-01-25T12:35:22.747Z,100676.91
2023-01-25T12:37:53.670Z,100680.53
2023-01-25T12:40:30.714Z,100679.72
2023-01-25T12:42:59.666Z,100666.59
2023-01-25T12:45:34.835Z,100672.69
2023-01-25T12:48:22.818Z,100665.78
2023-01-25T12:50:57.307Z,100668.78
2023-01-25T12:53:33.541Z,100666.91
2023-01-25T12:56:00.851Z,100664.31
2023-01-25T12:58:52.594Z,100660.00
2023-01-25T13:01:54.424Z,100659.88
2023-01-25T13:04:45.179Z,100661.53
2023-01-25T13:07:27.821Z,100657.81
2023-01-25T13:10:02.012Z,100644.81
2023-01-25T13:12:28.613Z,100648.91
2023-01-25T13:14:55.150Z,100649.31
2023-01-25T13:17:34.837Z,100654.50
2023-01-25T13:20:22.852Z,100643.22
2023-01-25T13:22:49.814Z,100644.88
2023-01-25T13:25:20.851Z,100635.88
2023-01-25T13:27:47.490Z,100636.28
2023-01-25T13:30:30.777Z,100636.41
2023-01-25T13:33:03.294Z,100628.25
2023-01-25T13:35:35.649Z,100624.09
2023-01-25T13:38:29.729Z,100627.59
2023-01-25T13:41:04.960Z,100628.63
2023-01-25T13:43:31.577Z,100624.19
2023-01-25T13:45:58.202Z,100626.16
2023-01-25T13:48:28.730Z,100632.88
2023-01-25T13:51:00.251Z,100628.22
2023-01-25T13:53:27.331Z,100632.97
2023-01-25T13:55:56.596Z,100630.19
2023-01-25T13:58:32.642Z,100623.44
2023-01-25T14:01:14.900Z,100620.66
2023-01-25T14:04:02.425Z,100615.69
2023-01-25T14:06:37.840Z,100611.47
2023-01-25T14:09:12.424Z,100608.34
2023-01-25T14:11:57.618Z,100610.19
2023-01-25T14:14:32.644Z,100606.59
2023-01-25T14:17:15.952Z,100600.94
2023-01-25T14:19:48.935Z,100602.78
2023-01-25T14:22:21.844Z,100590.00
2023-01-25T14:25:03.646Z,100586.25
2023-01-25T14:27:30.969Z,100585.31
2023-01-25T14:29:57.587Z,100583.66
2023-01-25T14:32:27.426Z,100582.25
2023-01-25T14:34:54.842Z,100578.84
2023-01-25T14:37:22.006Z,100582.16
2023-01-25T14:39:50.987Z,100580.53
2023-01-25T14:42:18.677Z,100578.44
2023-01-25T14:44:45.728Z,100584.00
2023-01-25T14:47:32.386Z,100581.13
2023-01-25T14:50:30.139Z,100581.53
2023-01-25T14:52:58.912Z,100577.81
2023-01-25T14:55:26.623Z,100587.72
2023-01-25T14:57:58.712Z,100574.28
2023-01-25T15:00:26.941Z,100580.69
2023-01-25T15:02:56.162Z,100583.38
2023-01-25T15:05:26.071Z,100578.31
2023-01-25T15:07:58.666Z,100577.78
2023-01-25T15:10:30.326Z,100574.28
2023-01-25T15:13:14.547Z,100570.78
2023-01-25T15:15:56.343Z,100569.72
2023-01-25T15:18:44.703Z,100565.47
2023-01-25T15:21:14.063Z,100577.34
2023-01-25T15:23:43.163Z,100580.03
2023-01-25T15:26:17.244Z,100571.16
2023-01-25T15:28:43.845Z,100575.53
2023-01-25T15:31:24.150Z,100563.88
2023-01-25T15:33:50.900Z,100563.69
2023-01-25T15:36:17.688Z,100561.94
2023-01-25T15:38:46.030Z,100561.72
2023-01-25T15:41:13.307Z,100563.91
2023-01-25T15:43:40.399Z,100556.88
2023-01-25T15:46:16.685Z,100552.63
2023-01-25T15:48:45.173Z,100547.56
2023-01-25T15:51:14.458Z,100546.19
2023-01-25T15:53:41.594Z,100544.53
2023-01-25T15:56:13.603Z,100541.66
2023-01-25T15:58:42.365Z,100545.72
2023-01-25T16:01:10.278Z,100553.66
2023-01-25T16:03:36.826Z,100554.91
2023-01-25T16:06:20.492Z,100553.47
2023-01-25T16:08:47.349Z,100550.78
2023-01-25T16:11:13.789Z,100548.22
2023-01-25T16:13:41.006Z,100541.91
2023-01-25T16:16:19.737Z,100548.94
2023-01-25T16:18:46.618Z,100534.69
2023-01-25T16:21:13.654Z,100535.97
2023-01-25T16:23:40.347Z,100544.78
2023-01-25T16:26:27.797Z,100540.31
2023-01-25T16:28:54.498Z,100540.63
2023-01-25T16:31:32.031Z,100530.81
2023-01-25T16:33:59.549Z,100536.63
2023-01-25T16:36:26.196Z,100541.25
2023-01-25T16:38:52.873Z,100543.91
2023-01-25T16:41:19.639Z,100545.66
2023-01-25T16:43:48.503Z,100539.50
2023-01-25T16:46:23.518Z,100546.28
2023-01-25T16:48:51.749Z,100548.16
2023-01-25T16:51:28.714Z,100548.97
2023-01-25T16:53:57.388Z,100552.28
2023-01-25T16:56:33.442Z,100554.09
2023-01-25T16:59:05.632Z,100557.94
2023-01-25T17:01:32.620Z,100559.00
2023-01-25T17:03:59.403Z,100563.72
2023-01-25T17:06:32.033Z,100554.56
2023-01-25T17:09:04.050Z,100552.00
2023-01-25T17:11:36.086Z,100533.94
2023-01-25T17:14:02.783Z,100538.88
2023-01-25T17:16:30.423Z,100541.72
2023-01-25T17:18:59.576Z,100545.34
2023-01-25T17:21:27.191Z,100541.44
2023-01-25T17:23:55.690Z,100534.00
2023-01-25T17:26:23.919Z,100536.69
2023-01-25T17:28:51.508Z,100529.56
2023-01-25T17:31:20.983Z,100531.22
2023-01-25T17:33:47.951Z,100530.94
2023-01-25T17:36:15.341Z,100523.28
2023-01-25T17:38:42.679Z,100519.78
2023-01-25T17:41:11.815Z,100517.91
2023-01-25T17:43:38.627Z,100516.88
2023-01-25T17:46:19.961Z,100513.56
2023-01-25T17:48:46.553Z,100509.97
2023-01-25T17:51:13.030Z,100517.50
2023-01-25T17:53:39.586Z,100511.63
2023-01-25T17:56:08.355Z,100502.84
2023-01-25T17:58:36.316Z,100498.91
2023-01-25T18:01:14.505Z,100524.31
2023-01-25T18:03:42.637Z,100482.84
2023-01-25T18:06:11.219Z,100486.66
2023-01-25T18:08:43.009Z,100485.13
2023-01-25T18:11:11.084Z,100478.81
2023-01-25T18:13:41.991Z,100490.47
2023-01-25T18:16:09.720Z,100507.38
2023-01-25T18:18:37.663Z,100496.34
2023-01-25T18:21:16.177Z,100488.81
2023-01-25T18:23:47.675Z,100492.13
2023-01-25T18:26:20.374Z,100485.09
2023-01-25T18:28:47.058Z,100493.25
2023-01-25T18:31:14.256Z,100503.44
2023-01-25T18:33:41.004Z,100504.81
2023-01-25T18:36:07.869Z,100493.13
2023-01-25T18:38:34.412Z,100485.09
2023-01-25T18:41:01.007Z,100476.13
2023-01-25T18:43:27.565Z,100470.22
2023-01-25T18:45:55.888Z,100461.63
2023-01-25T18:48:23.353Z,100459.59
2023-01-25T18:50:49.911Z,100460.91
2023-01-25T18:53:16.482Z,100463.88
2023-01-25T18:55:43.064Z,100469.56
2023-01-25T18:58:09.621Z,100472.00
2023-01-25T19:00:36.158Z,100459.59
2023-01-25T19:03:02.769Z,100460.72
2023-01-25T19:05:29.709Z,100451.47
2023-01-25T19:07:56.269Z,100447.72
2023-01-25T19:10:22.907Z,100452.25
2023-01-25T19:12:50.329Z,100430.44
2023-01-25T19:15:16.877Z,100439.50
2023-01-25T19:17:43.484Z,100430.09
2023-01-25T19:20:10.637Z,100426.97
2023-01-25T19:22:37.208Z,100432.47
2023-01-25T19:25:03.899Z,100429.75
2023-01-25T19:27:30.419Z,100427.91
2023-01-25T19:29:56.885Z,100424.41
2023-01-25T19:32:23.450Z,100429.13
2023-01-25T19:34:50.927Z,100425.22
2023-01-25T19:37:17.470Z,100415.13
2023-01-25T19:39:44.432Z,100419.75
2023-01-25T19:42:10.938Z,100433.88
2023-01-25T19:44:37.500Z,100429.56
2023-01-25T19:47:04.118Z,100421.63
2023-01-25T19:49:30.571Z,100417.22
2023-01-25T19:51:57.072Z,100429.47
2023-01-25T19:54:23.739Z,100424.19
2023-01-25T19:56:50.993Z,100412.16
2023-01-25T19:59:20.141Z,100416.16
2023-01-25T20:01:47.682Z,100408.63
2023-01-25T20:04:18.141Z,100411.72
2023-01-25T20:06:45.563Z,100418.41
2023-01-25T20:09:14.514Z,100422.13
2023-01-25T20:11:41.659Z,100416.53
2023-01-25T20:14:08.497Z,100412.63
2023-01-25T20:16:35.677Z,100407.88
2023-01-25T20:19:03.101Z,100407.69
2023-01-25T20:21:30.955Z,100415.94
2023-01-25T20:23:59.174Z,100408.69
2023-01-25T20:26:31.747Z,100415.69
2023-01-25T20:28:59.236Z,100410.97
2023-01-25T20:31:28.649Z,100409.88
2023-01-25T20:33:58.347Z,100413.28
2023-01-25T20:36:25.636Z,100409.88
2023-01-25T20:38:52.151Z,100413.88
2023-01-25T20:41:18.959Z,100423.75
2023-01-25T20:43:50.319Z,100451.81
2023-01-25T20:46:18.457Z,100416.13
2023-01-25T20:48:45.065Z,100420.81
2023-01-25T20:51:13.739Z,100411.81
2023-01-25T20:53:41.867Z,100417.16
2023-01-25T20:56:09.727Z,100413.66
2023-01-25T20:58:36.552Z,100413.97
2023-01-25T21:01:03.991Z,100410.34
2023-01-25T21:03:30.607Z,100399.84
2023-01-25T21:05:59.243Z,100408.50
2023-01-25T21:08:28.876Z,100408.50
2023-01-25T21:10:57.930Z,100399.56
2023-01-25T21:13:25.349Z,100401.94
2023-01-25T21:16:01.958Z,100391.94
2023-01-25T21:18:31.646Z,100426.44
2023-01-25T21:21:10.550Z,100386.28
2023-01-25T21:23:39.375Z,100396.34
2023-01-25T21:26:07.562Z,100389.16
2023-01-25T21:28:34.905Z,100390.06
2023-01-25T21:31:22.620Z,100397.72
2023-01-25T21:33:49.159Z,100390.19
2023-01-25T21:36:17.376Z,100386.16
2023-01-25T21:38:46.399Z,100389.66
2023-01-25T21:41:18.192Z,100385.00
2023-01-25T21:43:45.980Z,100392.00
2023-01-25T21:46:12.596Z,100394.56
2023-01-25T21:48:39.089Z,100387.13
2023-01-25T21:51:05.762Z,100374.06
2023-01-25T21:53:32.443Z,100379.63
2023-01-25T21:55:58.931Z,100374.00
2023-01-25T21:58:25.428Z,100369.94
2023-01-25T22:00:52.123Z,100357.16
2023-01-25T22:03:18.713Z,100364.72
2023-01-25T22:05:54.262Z,100364.53
2023-01-25T22:08:20.900Z,100363.28
2023-01-25T22:10:47.372Z,100357.69
2023-01-25T22:13:14.728Z,100360.75
2023-01-25T22:15:41.266Z,100359.97
2023-01-25T22:18:07.783Z,100361.09
2023-01-25T22:20:34.786Z,100359.53
2023-01-25T22:23:01.964Z,100360.44
2023-01-25T22:25:28.607Z,100350.44
2023-01-25T22:27:59.941Z,100352.09
2023-01-25T22:30:26.504Z,100350.44
2023-01-25T22:32:53.079Z,100351.91
2023-01-25T22:35:19.668Z,100350.06
2023-01-25T22:37:46.191Z,100346.38
2023-01-25T22:40:13.228Z,100343.06
2023-01-25T22:42:40.125Z,100347.09
2023-01-25T22:45:07.295Z,100325.97
2023-01-25T22:47:33.846Z,100349.41
2023-01-25T22:50:00.718Z,100342.25
2023-01-25T22:52:27.248Z,100341.44
2023-01-25T22:54:53.874Z,100343.06
2023-01-25T22:57:20.467Z,100335.09
2023-01-25T22:59:46.952Z,100335.88
2023-01-25T23:02:13.425Z,100346.91
2023-01-25T23:04:40.057Z,100345.41
2023-01-25T23:07:06.736Z,100341.22
2023-01-25T23:09:34.145Z,100337.72
2023-01-25T23:12:00.808Z,100350.69
2023-01-25T23:14:27.460Z,100328.06
2023-01-25T23:16:54.207Z,100341.84
2023-01-25T23:19:20.844Z,100348.75
2023-01-25T23:21:47.420Z,100352.59
2023-01-25T23:24:14.116Z,100349.47
2023-01-25T23:26:40.692Z,100338.78
2023-01-25T23:29:10.757Z,100340.84
2023-01-25T23:31:37.561Z,100330.72
2023-01-25T23:34:06.640Z,100337.16
2023-01-25T23:36:37.347Z,100334.03
2023-01-25T23:39:04.376Z,100336.22
2023-01-25T23:41:31.526Z,100320.25
2023-01-25T23:43:58.606Z,100333.13
2023-01-25T23:46:26.086Z,100334.59
2023-01-25T23:48:52.857Z,100326.88
2023-01-25T23:51:20.325Z,100324.22
2023-01-25T23:53:47.247Z,100324.31
2023-01-25T23:56:19.842Z,100320.63
2023-01-25T23:58:47.907Z,100316.75
